Time;durP1;ratioP1;P1;durP2;ratioP2;P2;SDS_P1;SDS_P2;PMS_P1;PMS_P2;Temp;Humidity;BMP_temperature;BMP_pressure;BME280_temperature;BME280_humidity;BME280_pressure;Samples;Min_cycle;Max_cycle;Signal;HPM_P1;HPM_P2
2020/12/12 00:01:33;;;;;;;40.17;23.53;;;;;;;4.70;94.25;98964.34;5034914;28;20586;-72
2020/12/12 00:04:01;;;;;;;37.63;22.00;;;;;;;4.86;93.54;98964.00;5002639;28;20184;-72
2020/12/12 00:06:27;;;;;;;39.03;22.87;;;;;;;4.82;93.59;98962.97;5035392;28;20191;-73
2020/12/12 00:08:53;;;;;;;37.27;22.30;;;;;;;4.77;93.56;98957.59;5034576;28;20211;-73
2020/12/12 00:11:22;;;;;;;37.53;21.80;;;;;;;4.62;94.12;98954.19;5051226;28;20688;-71
2020/12/12 00:13:50;;;;;;;39.63;22.43;;;;;;;4.75;93.57;98950.91;5034241;28;20191;-72
2020/12/12 00:16:16;;;;;;;41.37;23.73;;;;;;;4.74;93.54;98960.88;5033837;28;20180;-73
2020/12/12 00:18:44;;;;;;;39.40;22.07;;;;;;;4.74;93.88;98960.88;5018072;28;20195;-73
2020/12/12 00:21:15;;;;;;;35.93;22.50;;;;;;;4.74;93.85;98962.72;5051084;28;20194;-73
2020/12/12 00:23:43;;;;;;;42.83;23.83;;;;;;;4.78;94.02;98963.78;5018360;28;20188;-72
2020/12/12 00:26:08;;;;;;;38.73;23.37;;;;;;;4.82;93.80;98962.16;5017878;28;20244;-73
2020/12/12 00:28:36;;;;;;;41.23;23.47;;;;;;;4.84;93.44;98954.63;5034658;28;20216;-70
2020/12/12 00:31:02;;;;;;;38.13;22.93;;;;;;;4.83;93.35;98963.75;5053219;28;20731;-73
2020/12/12 00:33:32;;;;;;;39.43;23.13;;;;;;;4.87;93.22;98954.06;5018353;28;20194;-72
2020/12/12 00:35:59;;;;;;;36.07;21.93;;;;;;;4.71;93.29;98960.59;5034188;28;20187;-72
2020/12/12 00:38:25;;;;;;;38.30;22.63;;;;;;;4.78;93.62;98958.41;5017709;28;20195;-73
2020/12/12 00:41:00;;;;;;;37.97;22.97;;;;;;;4.81;93.49;98957.84;5017722;28;20235;-72
2020/12/12 00:43:26;;;;;;;41.87;23.90;;;;;;;4.80;93.48;98953.53;5019743;28;20191;-74
2020/12/12 00:45:51;;;;;;;38.00;23.03;;;;;;;4.72;93.85;98954.13;5070187;28;20595;-73
2020/12/12 00:48:17;;;;;;;35.60;22.37;;;;;;;4.75;94.20;98958.97;5053879;28;20241;-72
2020/12/12 00:50:46;;;;;;;38.97;24.00;;;;;;;4.85;93.33;98966.97;5037250;28;20167;-73
2020/12/12 00:53:12;;;;;;;36.10;23.00;;;;;;;4.86;93.61;98955.16;5053770;28;20694;-73
2020/12/12 00:55:38;;;;;;;35.60;23.00;;;;;;;4.78;93.42;98953.03;5036953;28;20174;-72
2020/12/12 00:58:06;;;;;;;39.00;23.53;;;;;;;4.77;93.49;98956.81;5053912;28;20209;-71
2020/12/12 01:00:34;;;;;;;36.80;23.13;;;;;;;4.70;93.38;98967.06;5053570;28;20187;-71
2020/12/12 01:03:01;;;;;;;33.60;22.00;;;;;;;4.80;93.35;98969.69;5037892;28;20614;-73
2020/12/12 01:05:31;;;;;;;38.83;22.67;;;;;;;4.76;93.18;98963.25;5053328;28;20179;-72
2020/12/12 01:07:57;;;;;;;36.70;23.00;;;;;;;4.81;93.11;98955.97;5037713;28;20255;-72
2020/12/12 01:10:23;;;;;;;36.90;22.77;;;;;;;4.79;93.00;98946.56;5053242;28;20629;-72
2020/12/12 01:12:48;;;;;;;37.40;23.27;;;;;;;4.80;92.97;98958.91;5037102;28;20198;-73
2020/12/12 01:15:14;;;;;;;35.13;22.67;;;;;;;4.76;92.96;98957.88;5032774;28;20180;-73
2020/12/12 01:17:42;;;;;;;37.80;23.00;;;;;;;4.76;93.30;98955.19;5033236;28;20183;-73
2020/12/12 01:20:07;;;;;;;34.00;21.57;;;;;;;4.64;93.07;98949.34;5016996;28;20310;-72
2020/12/12 01:22:34;;;;;;;34.47;22.47;;;;;;;4.70;93.53;98964.34;5049962;28;20196;-73
2020/12/12 01:25:03;;;;;;;35.43;22.60;;;;;;;4.62;93.53;98954.19;5049526;28;20195;-73
2020/12/12 01:27:31;;;;;;;34.53;22.20;;;;;;;4.70;93.65;98957.09;5016328;28;20184;-73
2020/12/12 01:30:01;;;;;;;35.10;22.43;;;;;;;4.80;93.06;98961.63;5049841;28;20221;-73
2020/12/12 01:32:29;;;;;;;33.63;22.50;;;;;;;4.66;93.53;98966.00;5032757;28;20205;-73
2020/12/12 01:34:57;;;;;;;36.03;21.87;;;;;;;4.69;93.04;98960.06;5048816;28;20179;-74
2020/12/12 01:37:23;;;;;;;35.60;21.53;;;;;;;4.69;93.09;98960.06;5033575;28;20182;-72
2020/12/12 01:39:49;;;;;;;33.73;21.83;;;;;;;4.61;93.12;98966.00;5049506;28;20270;-73
2020/12/12 01:42:14;;;;;;;33.70;21.97;;;;;;;4.58;93.57;98969.25;5032880;28;20208;-74
2020/12/12 01:44:44;;;;;;;36.67;21.60;;;;;;;4.65;92.94;98956.31;5038771;28;20269;-72
2020/12/12 01:47:10;;;;;;;35.23;20.77;;;;;;;4.66;92.74;98957.94;5019167;28;20215;-71
2020/12/12 01:49:39;;;;;;;34.93;22.17;;;;;;;4.65;93.29;98953.63;5033254;28;20207;-73
2020/12/12 01:52:07;;;;;;;33.17;21.20;;;;;;;4.66;92.92;98952.56;5066177;28;20178;-73
2020/12/12 01:54:32;;;;;;;32.97;21.40;;;;;;;4.76;92.37;98949.81;5016337;28;20184;-72
2020/12/12 01:57:00;;;;;;;34.17;20.53;;;;;;;4.62;93.04;98955.00;5033089;28;20192;-73
2020/12/12 01:59:28;;;;;;;32.50;22.07;;;;;;;4.51;93.09;98960.69;5032758;28;20203;-72
2020/12/12 02:01:59;;;;;;;34.43;22.07;;;;;;;4.46;93.27;98968.75;5032748;28;20196;-72
2020/12/12 02:04:25;;;;;;;31.77;20.90;;;;;;;4.46;93.13;98963.38;5050249;28;20219;-72
2020/12/12 02:06:54;;;;;;;32.97;20.17;;;;;;;4.44;92.96;98959.38;5065716;28;20183;-73
2020/12/12 02:09:22;;;;;;;34.83;21.17;;;;;;;4.49;93.17;98968.22;5049513;28;20195;-72
2020/12/12 02:11:50;;;;;;;31.30;20.20;;;;;;;4.45;93.62;98961.78;5034025;28;20249;-72
2020/12/12 02:14:20;;;;;;;34.50;20.33;;;;;;;4.50;93.36;98963.63;5035915;28;20200;-72
2020/12/12 02:16:53;;;;;;;31.47;20.43;;;;;;;4.55;92.50;98956.38;5022704;28;20237;-73
2020/12/12 02:19:19;;;;;;;30.87;20.57;;;;;;;4.53;92.70;98963.09;5032505;28;20206;-73
2020/12/12 02:21:51;;;;;;;32.67;20.83;;;;;;;4.52;92.54;98962.28;5016203;28;20191;-73
2020/12/12 02:24:20;;;;;;;30.47;20.27;;;;;;;4.57;92.25;98959.56;5032083;28;20195;-73
2020/12/12 02:26:45;;;;;;;30.80;20.47;;;;;;;4.62;92.19;98956.88;5048946;28;20175;-74
2020/12/12 02:29:11;;;;;;;33.10;20.10;;;;;;;4.48;92.15;98950.47;5048883;28;20227;-73
2020/12/12 02:31:38;;;;;;;33.07;20.20;;;;;;;4.49;92.38;98954.78;5032574;28;20233;-72
2020/12/12 02:34:04;;;;;;;31.87;20.63;;;;;;;4.58;92.06;98961.19;5048881;28;20615;-73
2020/12/12 02:36:36;;;;;;;30.60;20.77;;;;;;;4.53;92.64;98957.72;5015628;28;20175;-72
2020/12/12 02:39:08;;;;;;;29.53;20.43;;;;;;;4.48;92.38;98955.84;5053023;28;20236;-72
2020/12/12 02:41:36;;;;;;;35.17;21.13;;;;;;;4.33;93.46;98963.97;5053180;28;20631;-74
2020/12/12 02:44:04;;;;;;;30.50;20.13;;;;;;;4.42;93.09;98961.53;5052617;28;20210;-72
2020/12/12 02:46:30;;;;;;;31.93;21.03;;;;;;;4.40;93.01;98964.47;5019351;28;20183;-72
2020/12/12 02:48:57;;;;;;;33.87;21.00;;;;;;;4.46;92.98;98963.38;5036294;28;20199;-72
2020/12/12 02:51:22;;;;;;;31.17;19.70;;;;;;;4.47;92.87;98965.00;5019617;28;20186;-72
2020/12/12 02:53:51;;;;;;;29.57;19.77;;;;;;;4.52;92.26;98970.34;5036110;28;20180;-73
2020/12/12 02:56:19;;;;;;;33.20;20.63;;;;;;;4.48;92.52;98966.59;5019471;28;20187;-72
2020/12/12 02:58:48;;;;;;;31.17;20.60;;;;;;;4.53;92.60;98973.84;5019898;28;20196;-72
2020/12/12 03:01:14;;;;;;;31.17;20.17;;;;;;;4.59;92.08;98974.34;5019729;28;20733;-72
2020/12/12 03:03:42;;;;;;;29.13;20.17;;;;;;;4.60;91.74;98975.16;5019502;28;20188;-73
2020/12/12 03:06:10;;;;;;;30.93;19.90;;;;;;;4.49;91.62;98968.22;5019507;28;20191;-72
2020/12/12 03:08:36;;;;;;;33.43;20.57;;;;;;;4.43;91.98;98963.13;5019623;28;20204;-73
2020/12/12 03:11:04;;;;;;;32.20;20.53;;;;;;;4.47;91.78;98970.38;5035912;28;20195;-72
2020/12/12 03:13:30;;;;;;;34.07;21.40;;;;;;;4.40;92.12;98964.47;5021869;28;20247;-71
2020/12/12 03:15:58;;;;;;;33.13;21.37;;;;;;;4.38;92.37;98960.47;5055219;28;20207;-73
2020/12/12 03:18:24;;;;;;;33.00;20.30;;;;;;;4.41;92.25;98965.28;5038834;28;20564;-74
2020/12/12 03:20:49;;;;;;;34.10;21.37;;;;;;;4.43;91.98;98953.19;5055690;28;20194;-72
2020/12/12 03:23:15;;;;;;;34.70;21.73;;;;;;;4.39;91.98;98973.59;5056037;28;20205;-73
2020/12/12 03:25:40;;;;;;;33.93;20.47;;;;;;;4.37;92.10;98967.72;5038820;28;20194;-72
2020/12/12 03:28:07;;;;;;;33.97;21.43;;;;;;;4.45;91.93;98966.34;5039255;28;20198;-72
2020/12/12 03:30:35;;;;;;;34.40;22.20;;;;;;;4.33;92.03;98966.66;5040062;28;20205;-72
2020/12/12 03:33:07;;;;;;;35.30;22.30;;;;;;;4.36;91.82;98960.75;5072233;28;20183;-72
2020/12/12 03:35:34;;;;;;;34.03;21.33;;;;;;;4.36;92.36;98965.28;5039422;28;20294;-72
2020/12/12 03:38:05;;;;;;;33.13;21.13;;;;;;;4.27;92.39;98978.50;5023512;28;20586;-71
2020/12/12 03:40:33;;;;;;;36.90;21.67;;;;;;;4.32;92.27;98975.81;5071892;28;20186;-72
2020/12/12 03:42:59;;;;;;;37.50;20.57;;;;;;;4.37;92.37;98980.34;5038309;28;20624;-71
2020/12/12 03:45:24;;;;;;;35.17;21.87;;;;;;;4.27;92.38;98975.81;5052423;28;20195;-73
2020/12/12 03:47:50;;;;;;;34.43;21.33;;;;;;;4.27;92.66;98975.81;5038241;28;20174;-72
2020/12/12 03:50:15;;;;;;;35.93;21.67;;;;;;;4.20;92.40;98979.06;5038120;28;20183;-72
2020/12/12 03:52:41;;;;;;;39.27;25.23;;;;;;;4.19;92.99;98974.75;5055116;28;20163;-72
2020/12/12 03:55:09;;;;;;;33.30;21.20;;;;;;;4.22;93.21;98978.50;5038595;28;20183;-72
2020/12/12 03:57:35;;;;;;;37.53;23.53;;;;;;;4.25;93.09;98974.47;5038261;28;20652;-73
2020/12/12 04:00:00;;;;;;;36.80;23.13;;;;;;;4.17;92.87;98974.22;5071528;28;20244;-72
2020/12/12 04:02:26;;;;;;;36.20;22.33;;;;;;;4.16;93.23;98978.78;5071325;28;20606;-72
2020/12/12 04:04:54;;;;;;;33.97;22.23;;;;;;;4.10;93.03;98982.53;5037912;28;20183;-72
2020/12/12 04:07:19;;;;;;;37.03;22.60;;;;;;;4.16;93.31;98983.34;5038913;28;20192;-70
2020/12/12 04:09:45;;;;;;;35.90;22.77;;;;;;;4.16;92.58;98988.72;5038126;28;20207;-72
2020/12/12 04:12:15;;;;;;;36.83;22.50;;;;;;;4.15;93.12;98981.75;5071570;28;20170;-72
2020/12/12 04:14:41;;;;;;;34.90;21.23;;;;;;;4.04;93.09;98975.59;5034351;28;20180;-73
2020/12/12 04:17:07;;;;;;;36.20;21.17;;;;;;;4.07;92.98;98971.56;5048907;28;20182;-72
2020/12/12 04:19:32;;;;;;;36.50;23.40;;;;;;;4.04;93.03;98974.78;5034542;28;20703;-72
2020/12/12 04:21:58;;;;;;;34.90;21.77;;;;;;;4.08;92.98;98970.47;5034776;28;20214;-73
2020/12/12 04:24:24;;;;;;;35.90;22.50;;;;;;;4.08;92.98;98971.28;5052384;28;20207;-70
2020/12/12 04:26:49;;;;;;;34.20;21.90;;;;;;;4.08;92.50;98975.84;5034759;28;20209;-72
2020/12/12 04:29:17;;;;;;;36.50;22.17;;;;;;;4.15;92.85;98968.31;5034635;28;20206;-72
2020/12/12 04:31:43;;;;;;;31.97;21.83;;;;;;;4.05;93.22;98971.84;5067267;28;20736;-71
2020/12/12 04:34:09;;;;;;;36.07;22.60;;;;;;;4.16;92.69;98972.59;5050776;28;20198;-71
2020/12/12 04:36:38;;;;;;;35.67;21.83;;;;;;;4.10;92.87;98973.69;5034349;28;20226;-71
2020/12/12 04:39:04;;;;;;;37.00;22.13;;;;;;;4.07;92.68;98968.88;5050912;28;20211;-72
2020/12/12 04:41:31;;;;;;;36.90;22.43;;;;;;;4.02;92.63;98976.94;5050633;28;20226;-73
2020/12/12 04:43:59;;;;;;;31.70;21.13;;;;;;;4.00;91.95;98976.41;5051362;28;20199;-72
2020/12/12 04:46:26;;;;;;;35.87;21.40;;;;;;;3.90;92.58;98984.47;5037489;28;20171;-73
2020/12/12 04:48:52;;;;;;;34.33;22.77;;;;;;;3.90;93.16;98973.72;5054406;28;20218;-72
2020/12/12 04:51:18;;;;;;;33.50;21.93;;;;;;;3.96;92.67;98978.03;5037074;28;20176;-72
2020/12/12 04:53:43;;;;;;;33.57;21.30;;;;;;;3.97;92.50;98980.41;5054124;28;20209;-73
2020/12/12 04:56:12;;;;;;;35.23;22.57;;;;;;;4.01;92.50;98975.31;5037735;28;20632;-72
2020/12/12 04:58:38;;;;;;;33.17;22.00;;;;;;;3.90;92.64;98971.88;5037314;28;20268;-72
2020/12/12 05:01:06;;;;;;;33.13;21.03;;;;;;;4.01;92.77;98975.31;5036241;28;20258;-72
2020/12/12 05:03:32;;;;;;;39.00;23.27;;;;;;;3.96;92.52;98978.03;5021281;28;20191;-72
2020/12/12 05:06:00;;;;;;;34.90;21.90;;;;;;;3.96;92.87;98968.09;5053423;28;20183;-72
2020/12/12 05:08:25;;;;;;;32.77;21.63;;;;;;;3.96;92.76;98970.78;5053535;28;20199;-72
2020/12/12 05:10:51;;;;;;;34.77;22.27;;;;;;;4.02;92.84;98974.25;5020323;28;20569;-74
2020/12/12 05:13:22;;;;;;;36.23;23.30;;;;;;;4.01;92.72;98978.00;5037064;28;20183;-71
2020/12/12 05:15:48;;;;;;;33.83;22.07;;;;;;;4.00;91.92;98974.53;5036436;28;20315;-73
2020/12/12 05:18:19;;;;;;;35.33;22.83;;;;;;;4.04;92.49;98969.41;5033562;28;20199;-72
2020/12/12 05:20:44;;;;;;;36.27;22.23;;;;;;;4.12;92.10;98971.53;5017166;28;20180;-72
2020/12/12 05:23:23;;;;;;;35.67;21.80;;;;;;;4.07;92.69;98972.38;5033814;28;20272;-73
2020/12/12 05:25:49;;;;;;;33.87;21.40;;;;;;;4.18;92.26;98979.31;5017263;28;20221;-72
2020/12/12 05:28:20;;;;;;;33.53;21.17;;;;;;;4.17;91.50;98975.03;5066142;28;20257;-72
2020/12/12 05:30:46;;;;;;;35.33;22.03;;;;;;;4.19;91.67;98977.44;5033665;28;20592;-72
2020/12/12 05:33:19;;;;;;;36.10;21.80;;;;;;;4.15;91.98;98987.91;5033277;28;20685;-72
2020/12/12 05:35:48;;;;;;;35.33;21.57;;;;;;;4.13;91.83;98983.91;5037778;28;20187;-72
2020/12/12 05:38:14;;;;;;;35.80;22.27;;;;;;;4.31;91.42;98986.81;5053061;28;20668;-72
2020/12/12 05:40:44;;;;;;;36.70;23.00;;;;;;;4.30;91.21;98980.66;5052886;28;20252;-71
2020/12/12 05:43:11;;;;;;;37.63;22.27;;;;;;;4.18;91.55;98979.31;5052642;28;20600;-72
2020/12/12 05:45:39;;;;;;;36.30;22.90;;;;;;;4.15;91.67;98979.06;5032872;28;20184;-72
2020/12/12 05:48:05;;;;;;;36.50;22.30;;;;;;;4.16;91.67;98986.84;5030830;28;20200;-72
2020/12/12 05:50:31;;;;;;;38.30;23.03;;;;;;;4.16;91.58;98986.84;5032957;28;20172;-72
2020/12/12 05:52:57;;;;;;;36.67;23.40;;;;;;;4.14;91.89;98990.88;5049397;28;20218;-72
2020/12/12 05:55:28;;;;;;;38.30;23.17;;;;;;;4.17;91.26;98993.81;5049101;28;20561;-73
2020/12/12 05:57:54;;;;;;;40.13;24.80;;;;;;;4.18;91.85;98994.66;5066380;28;20672;-72
2020/12/12 06:00:24;;;;;;;37.07;22.40;;;;;;;4.16;92.25;99000.28;5066488;28;20175;-71
2020/12/12 06:02:52;;;;;;;37.47;21.80;;;;;;;4.23;91.96;99001.63;5065807;28;20230;-72
2020/12/12 06:05:23;;;;;;;38.33;24.00;;;;;;;4.11;91.88;98992.22;5065612;28;20179;-73
2020/12/12 06:07:52;;;;;;;38.70;23.60;;;;;;;4.10;92.04;98995.19;5066298;28;20213;-72
2020/12/12 06:10:18;;;;;;;36.87;23.03;;;;;;;4.10;91.55;98998.66;5016271;28;20184;-72
2020/12/12 06:12:43;;;;;;;38.03;23.17;;;;;;;4.04;91.67;98999.75;5065499;28;20179;-72
2020/12/12 06:15:09;;;;;;;36.63;23.63;;;;;;;4.08;92.18;98997.34;5058773;28;20171;-73
2020/12/12 06:17:42;;;;;;;38.37;24.27;;;;;;;4.13;92.09;98997.34;5016216;28;20245;-72
2020/12/12 06:20:08;;;;;;;37.47;23.30;;;;;;;4.01;91.71;99000.31;5048771;28;20187;-73
2020/12/12 06:22:34;;;;;;;38.27;23.23;;;;;;;4.07;92.26;99006.47;5032733;28;20355;-72
2020/12/12 06:25:01;;;;;;;39.00;23.70;;;;;;;4.09;91.86;99005.13;5015605;28;20192;-71
2020/12/12 06:27:32;;;;;;;40.90;24.80;;;;;;;4.06;92.12;99004.84;5016172;28;20188;-71
2020/12/12 06:29:58;;;;;;;40.50;23.53;;;;;;;3.98;91.61;99006.22;5015974;28;20990;-73
2020/12/12 06:32:26;;;;;;;42.67;23.70;;;;;;;3.98;91.88;99008.09;5016770;28;20278;-73
2020/12/12 06:34:52;;;;;;;38.57;21.93;;;;;;;3.94;92.88;99012.41;5015412;28;20183;-73
2020/12/12 06:37:37;;;;;;;40.27;24.80;;;;;;;3.89;92.93;99013.19;5016274;28;20182;-72
2020/12/12 06:40:07;;;;;;;38.33;22.50;;;;;;;3.93;92.98;99019.63;5049176;28;20205;-72
2020/12/12 06:42:32;;;;;;;39.70;23.70;;;;;;;3.94;92.57;99023.16;5016068;28;20218;-73
2020/12/12 06:44:59;;;;;;;39.37;23.40;;;;;;;3.91;92.73;99029.03;5063717;28;20195;-74
2020/12/12 06:47:52;;;;;;;41.20;24.43;;;;;;;4.00;92.90;99022.06;5035842;28;20266;-72
2020/12/12 06:50:31;;;;;;;38.03;23.13;;;;;;;4.03;93.11;99034.94;5048833;28;20205;-73
2020/12/12 06:52:57;;;;;;;41.53;24.40;;;;;;;3.98;93.22;99029.59;5052772;28;20176;-74
2020/12/12 06:55:26;;;;;;;40.80;24.40;;;;;;;4.01;93.14;99039.75;5052452;28;20286;-72
2020/12/12 06:58:00;;;;;;;37.30;22.23;;;;;;;4.00;93.05;99038.16;5054210;28;20190;-73
2020/12/12 07:00:25;;;;;;;41.43;24.30;;;;;;;3.99;92.95;99039.22;5070972;28;20712;-72
2020/12/12 07:03:04;;;;;;;40.33;23.70;;;;;;;3.88;93.23;99035.75;5069302;28;20207;-73
2020/12/12 07:05:37;;;;;;;42.13;24.63;;;;;;;4.06;93.01;99055.88;5036201;28;20183;-73
2020/12/12 07:08:08;;;;;;;39.23;23.93;;;;;;;3.96;93.44;99047.84;5035855;28;20576;-72
2020/12/12 07:10:36;;;;;;;39.37;23.50;;;;;;;3.99;93.51;99047.28;5052413;28;20236;-73
2020/12/12 07:13:02;;;;;;;37.50;23.33;;;;;;;3.87;93.66;99052.94;5035374;28;20183;-71
2020/12/12 07:15:38;;;;;;;42.77;24.70;;;;;;;3.95;93.26;99056.97;5040703;28;20196;-72
2020/12/12 07:18:07;;;;;;;37.47;24.13;;;;;;;4.02;93.49;99052.13;5068535;28;20214;-72
2020/12/12 07:20:38;;;;;;;40.67;23.80;;;;;;;3.91;93.40;99051.31;5035384;28;20179;-72
2020/12/12 07:23:04;;;;;;;41.00;24.87;;;;;;;4.00;93.82;99051.59;5035582;28;20211;-71
2020/12/12 07:25:33;;;;;;;40.47;24.30;;;;;;;3.89;94.03;99058.03;5054478;28;20607;-72
2020/12/12 07:28:02;;;;;;;45.30;25.97;;;;;;;4.00;93.78;99059.66;5040281;28;20198;-72
2020/12/12 07:30:27;;;;;;;38.10;23.67;;;;;;;3.89;93.68;99058.84;5063020;28;20184;-72
2020/12/12 07:32:53;;;;;;;38.17;23.40;;;;;;;3.97;93.61;99060.19;5044778;28;20218;-73
2020/12/12 07:35:19;;;;;;;42.63;25.90;;;;;;;3.88;94.06;99061.78;5045493;28;20200;-72
2020/12/12 07:37:45;;;;;;;41.13;25.33;;;;;;;3.87;94.23;99068.25;5071643;28;20187;-71
2020/12/12 07:40:13;;;;;;;40.87;24.97;;;;;;;4.00;94.19;99067.72;5053024;28;20180;-70
2020/12/12 07:42:41;;;;;;;37.43;23.73;;;;;;;3.98;93.72;99077.91;5049121;28;20211;-71
2020/12/12 07:47:39;;;;;;;41.60;23.50;;;;;;;3.96;93.72;99080.88;5058066;28;20183;-72
2020/12/12 07:50:08;;;;;;;45.10;25.13;;;;;;;3.89;94.61;99082.22;5068441;28;20194;-71
2020/12/12 07:52:33;;;;;;;41.93;24.43;;;;;;;3.88;94.89;99088.63;5031726;28;20180;-70
2020/12/12 07:55:10;;;;;;;41.37;24.20;;;;;;;3.95;94.61;99094.56;5052241;28;20176;-71
2020/12/12 07:57:40;;;;;;;38.53;23.83;;;;;;;3.96;94.98;99093.50;5053946;28;20194;-72
2020/12/12 08:00:10;;;;;;;42.37;23.87;;;;;;;4.03;94.44;99099.38;5052560;28;20207;-71
2020/12/12 08:02:39;;;;;;;41.00;24.60;;;;;;;3.97;94.83;99109.31;5036234;28;20222;-71
2020/12/12 08:05:05;;;;;;;40.63;23.97;;;;;;;3.95;94.17;99105.28;5035082;28;20184;-71
2020/12/12 08:07:34;;;;;;;41.47;24.10;;;;;;;3.96;94.92;99106.91;5034378;28;20186;-71
2020/12/12 08:10:00;;;;;;;39.13;23.43;;;;;;;3.89;94.83;99111.75;5053632;28;20204;-71
2020/12/12 08:12:31;;;;;;;42.53;23.97;;;;;;;3.93;94.67;99118.19;5034939;28;20184;-71
2020/12/12 08:15:00;;;;;;;37.33;23.43;;;;;;;3.99;94.68;99119.78;5032498;28;20559;-71
2020/12/12 08:17:31;;;;;;;41.27;24.80;;;;;;;4.00;94.71;99124.09;5040724;28;20190;-71
2020/12/12 08:19:57;;;;;;;38.43;23.80;;;;;;;4.11;94.38;99123.03;5046769;28;20249;-71
2020/12/12 08:22:23;;;;;;;38.07;23.97;;;;;;;4.17;93.88;99119.28;5050393;28;20596;-72
2020/12/12 08:24:49;;;;;;;41.87;24.77;;;;;;;4.20;93.62;99129.50;5049565;28;20246;-71
2020/12/12 08:27:25;;;;;;;42.70;24.27;;;;;;;4.21;93.63;99127.34;5063943;28;20537;-71
2020/12/12 08:29:53;;;;;;;39.30;23.80;;;;;;;4.24;93.62;99132.16;5046104;28;20222;-71
2020/12/12 08:32:37;;;;;;;38.63;23.17;;;;;;;4.28;93.25;99117.09;5032111;28;20660;-71
2020/12/12 08:35:09;;;;;;;38.33;22.63;;;;;;;4.27;93.01;99128.16;5029573;28;20183;-72
2020/12/12 08:37:35;;;;;;;37.77;22.87;;;;;;;4.22;93.28;99128.94;5077726;28;20187;-71
2020/12/12 08:40:13;;;;;;;36.90;21.30;;;;;;;4.28;93.00;99127.84;5052269;28;20200;-71
2020/12/12 08:42:39;;;;;;;35.43;22.73;;;;;;;4.27;92.88;99126.25;5028652;28;20207;-71
2020/12/12 08:45:42;;;;;;;40.70;23.57;;;;;;;4.31;92.43;99130.00;5045755;28;20191;-71
2020/12/12 08:48:12;;;;;;;40.77;23.53;;;;;;;4.32;92.71;99126.25;4980258;28;20252;-71
2020/12/12 08:50:55;;;;;;;34.40;22.63;;;;;;;4.26;92.58;99137.25;5024651;28;20250;-71
2020/12/12 08:53:33;;;;;;;38.13;23.33;;;;;;;4.31;92.71;99135.38;5034775;28;20218;-71
2020/12/12 08:56:03;;;;;;;35.60;23.27;;;;;;;4.26;93.33;99143.44;5051955;28;20190;-71
2020/12/12 08:58:39;;;;;;;39.93;22.60;;;;;;;4.36;92.64;99140.75;5059588;28;20215;-72
2020/12/12 09:01:21;;;;;;;37.93;22.63;;;;;;;4.33;92.51;99141.28;5059583;28;20187;-70
2020/12/12 09:04:02;;;;;;;36.27;22.53;;;;;;;4.36;92.64;99148.81;5018653;28;20286;-72
2020/12/12 09:06:35;;;;;;;35.83;22.17;;;;;;;4.29;92.22;99150.16;5067576;28;20284;-70
2020/12/12 09:09:09;;;;;;;34.93;22.70;;;;;;;4.20;92.91;99161.72;5041352;28;20332;-70
2020/12/12 09:11:35;;;;;;;34.70;22.17;;;;;;;4.37;92.45;99158.47;5054223;28;20191;-70
2020/12/12 09:14:01;;;;;;;35.03;22.37;;;;;;;4.17;92.70;99162.25;5070089;28;20179;-70
2020/12/12 09:16:27;;;;;;;36.17;22.00;;;;;;;4.18;93.15;99167.34;5061451;28;20266;-70
2020/12/12 09:18:55;;;;;;;37.13;22.13;;;;;;;4.29;92.97;99169.78;5045377;28;20286;-71
2020/12/12 09:21:21;;;;;;;33.73;22.17;;;;;;;4.33;92.75;99168.16;5033998;28;20184;-71
2020/12/12 09:23:49;;;;;;;36.87;22.73;;;;;;;4.30;93.01;99174.09;5050120;28;20186;-72
2020/12/12 09:26:15;;;;;;;36.07;21.83;;;;;;;4.34;92.44;99180.53;5033509;28;20163;-71
2020/12/12 09:28:43;;;;;;;32.70;22.00;;;;;;;4.39;92.26;99188.56;5033962;28;20203;-72
2020/12/12 09:31:08;;;;;;;35.57;21.90;;;;;;;4.30;92.70;99184.00;5035440;28;20642;-71
2020/12/12 09:33:34;;;;;;;34.53;21.43;;;;;;;4.40;92.44;99184.84;5035288;28;20221;-71
2020/12/12 09:36:04;;;;;;;36.57;22.13;;;;;;;4.49;92.14;99182.44;5035540;28;20176;-70
2020/12/12 09:38:34;;;;;;;36.23;22.67;;;;;;;4.47;92.39;99188.06;5038914;28;20259;-70
2020/12/12 09:41:02;;;;;;;33.83;21.53;;;;;;;4.54;92.06;99188.56;5036662;28;20205;-71
2020/12/12 09:43:28;;;;;;;34.53;21.30;;;;;;;4.61;92.13;99186.44;5053160;28;20203;-71
2020/12/12 09:45:53;;;;;;;34.07;22.57;;;;;;;4.57;91.52;99189.94;5037458;28;20187;-71
2020/12/12 09:48:19;;;;;;;35.00;22.20;;;;;;;4.56;92.14;99205.28;5032425;28;20282;-71
2020/12/12 09:50:47;;;;;;;33.70;20.90;;;;;;;4.70;91.61;99200.94;5033276;28;20184;-71
2020/12/12 09:53:13;;;;;;;34.43;21.63;;;;;;;4.71;91.11;99199.88;5049515;28;20180;-71
2020/12/12 09:55:39;;;;;;;33.37;21.23;;;;;;;4.82;91.02;99199.59;5032359;28;20249;-70
2020/12/12 09:58:06;;;;;;;34.77;21.90;;;;;;;4.86;91.01;99200.66;5033034;28;20278;-70
2020/12/12 10:00:33;;;;;;;34.27;21.90;;;;;;;4.79;90.55;99207.41;5049504;28;20247;-70
2020/12/12 10:02:58;;;;;;;32.40;20.40;;;;;;;4.86;90.51;99210.63;5032921;28;20211;-70
2020/12/12 10:05:24;;;;;;;31.03;20.80;;;;;;;4.68;91.37;99214.66;5032406;28;20702;-72
2020/12/12 10:07:53;;;;;;;32.47;21.97;;;;;;;4.81;90.70;99218.69;5032861;28;20563;-72
2020/12/12 10:10:18;;;;;;;32.03;20.60;;;;;;;4.81;90.57;99213.31;5052681;28;20676;-73
2020/12/12 10:12:47;;;;;;;32.43;21.60;;;;;;;4.88;90.68;99211.16;5050987;28;20160;-72
2020/12/12 10:15:12;;;;;;;30.93;20.13;;;;;;;4.77;91.06;99223.00;5045465;28;20226;-72
2020/12/12 10:17:43;;;;;;;31.60;20.67;;;;;;;4.99;90.13;99222.41;5033469;28;20175;-72
2020/12/12 10:20:11;;;;;;;30.07;19.73;;;;;;;4.96;90.36;99215.97;5049982;28;20584;-74
2020/12/12 10:22:36;;;;;;;31.73;20.63;;;;;;;5.06;90.00;99228.34;5017259;28;20210;-71
2020/12/12 10:25:05;;;;;;;32.47;20.17;;;;;;;5.02;89.73;99229.16;5032796;28;20168;-71
2020/12/12 10:27:31;;;;;;;31.50;19.27;;;;;;;5.04;89.72;99229.69;5017649;28;20186;-71
2020/12/12 10:29:57;;;;;;;33.83;21.40;;;;;;;5.10;89.49;99228.59;5016196;28;20199;-71
2020/12/12 10:32:22;;;;;;;31.67;20.73;;;;;;;5.16;89.90;99233.69;5048556;28;20209;-71
2020/12/12 10:34:48;;;;;;;30.50;20.20;;;;;;;5.28;89.78;99236.91;5045682;28;20660;-71
2020/12/12 10:37:18;;;;;;;29.93;20.27;;;;;;;5.31;89.19;99231.00;5042662;28;20187;-71
2020/12/12 10:40:08;;;;;;;30.20;20.97;;;;;;;5.48;88.65;99226.09;5049223;28;20589;-71
2020/12/12 10:42:33;;;;;;;31.33;21.37;;;;;;;5.34;89.09;99225.84;5058206;28;20207;-72
2020/12/12 10:44:59;;;;;;;30.77;20.47;;;;;;;5.38;88.76;99223.41;5042408;28;20212;-72
2020/12/12 10:47:25;;;;;;;30.03;20.53;;;;;;;5.46;88.34;99229.03;5049887;28;20183;-71
2020/12/12 10:49:50;;;;;;;31.23;20.07;;;;;;;5.50;88.62;99226.63;5051463;28;20761;-73
2020/12/12 10:52:16;;;;;;;28.30;19.30;;;;;;;5.42;88.29;99219.91;5039107;28;20168;-72
2020/12/12 10:54:47;;;;;;;30.17;20.07;;;;;;;5.62;87.91;99217.13;5072170;28;20187;-72
2020/12/12 10:57:13;;;;;;;29.90;19.47;;;;;;;5.77;87.59;99225.19;5053370;28;20182;-72
2020/12/12 10:59:46;;;;;;;28.73;19.67;;;;;;;5.75;87.37;99233.53;5072600;28;20263;-72
2020/12/12 11:02:12;;;;;;;29.23;20.73;;;;;;;5.88;87.12;99232.94;5030819;28;20202;-71
2020/12/12 11:04:41;;;;;;;30.63;18.87;;;;;;;5.75;86.59;99225.47;5068049;28;20197;-71
2020/12/12 11:07:11;;;;;;;31.50;19.83;;;;;;;5.80;86.84;99232.69;5035082;28;20180;-72
2020/12/12 11:09:39;;;;;;;31.43;20.13;;;;;;;5.90;86.68;99233.47;5033179;28;20203;-75
2020/12/12 11:12:07;;;;;;;30.60;19.87;;;;;;;5.99;86.49;99229.13;5037674;28;20195;-72
2020/12/12 11:14:35;;;;;;;28.13;19.60;;;;;;;5.97;86.55;99239.38;5025887;28;20225;-71
2020/12/12 11:17:04;;;;;;;29.43;20.03;;;;;;;5.91;85.90;99235.06;5025382;28;20195;-72
2020/12/12 11:19:29;;;;;;;29.03;18.83;;;;;;;6.03;86.30;99235.56;5067094;28;20203;-72
2020/12/12 11:21:55;;;;;;;29.87;18.90;;;;;;;6.10;85.96;99241.47;5033880;28;20898;-72
2020/12/12 11:24:24;;;;;;;29.33;19.77;;;;;;;6.00;85.34;99241.50;5061493;28;20191;-71
2020/12/12 11:26:53;;;;;;;30.80;19.83;;;;;;;5.91;86.04;99243.16;5049803;28;20673;-72
2020/12/12 11:29:18;;;;;;;27.30;19.47;;;;;;;6.02;86.03;99250.09;5071327;28;20684;-71
2020/12/12 11:31:47;;;;;;;27.77;19.40;;;;;;;6.07;86.28;99242.00;5033332;28;20266;-72